createdAt,value
2019-02-21T00:00:04.496Z,17.83
2019-02-21T00:02:33.527Z,18.27
2019-02-21T00:05:02.560Z,17.53
2019-02-21T00:07:31.833Z,17.33
2019-02-21T00:10:00.854Z,17.30
2019-02-21T00:12:30.848Z,17.43
2019-02-21T00:15:00.319Z,18.30
2019-02-21T00:17:29.824Z,15.97
2019-02-21T00:19:59.472Z,18.07
2019-02-21T00:22:29.148Z,18.40
2019-02-21T00:24:58.256Z,17.13
2019-02-21T00:27:27.319Z,17.43
2019-02-21T00:29:56.334Z,17.40
2019-02-21T00:32:25.372Z,18.40
2019-02-21T00:34:55.275Z,18.37
2019-02-21T00:37:24.774Z,18.23
2019-02-21T00:39:53.842Z,18.17
2019-02-21T00:42:23.132Z,17.70
2019-02-21T00:44:52.150Z,18.20
2019-02-21T00:47:21.913Z,18.53
2019-02-21T00:49:51.568Z,18.73
2019-02-21T00:52:20.958Z,19.87
2019-02-21T00:54:50.290Z,19.23
2019-02-21T00:57:19.318Z,18.90
2019-02-21T00:59:50.743Z,18.37
2019-02-21T01:02:19.161Z,17.23
2019-02-21T01:04:48.554Z,17.43
2019-02-21T01:07:17.662Z,17.77
2019-02-21T01:09:47.006Z,17.67
2019-02-21T01:12:16.173Z,19.13
2019-02-21T01:14:45.505Z,18.00
2019-02-21T01:17:14.563Z,16.83
2019-02-21T01:19:43.578Z,17.53
2019-02-21T01:22:12.964Z,18.10
2019-02-21T01:24:41.986Z,18.73
2019-02-21T01:27:11.397Z,18.67
2019-02-21T01:29:40.776Z,17.47
2019-02-21T01:32:09.820Z,18.23
2019-02-21T01:34:39.228Z,19.10
2019-02-21T01:37:08.582Z,18.60
2019-02-21T01:39:37.644Z,19.07
2019-02-21T01:42:07.022Z,17.80
2019-02-21T01:44:36.087Z,19.20
2019-02-21T01:47:05.172Z,19.57
2019-02-21T01:49:34.230Z,18.73
2019-02-21T01:52:03.572Z,16.50
2019-02-21T01:54:32.567Z,15.93
2019-02-21T01:57:01.656Z,17.00
2019-02-21T01:59:30.699Z,16.97
2019-02-21T02:01:59.749Z,16.70
2019-02-21T02:04:28.821Z,16.50
2019-02-21T02:06:57.849Z,18.63
2019-02-21T02:09:26.838Z,17.47
2019-02-21T02:11:55.932Z,17.53
2019-02-21T02:14:24.978Z,17.87
2019-02-21T02:16:54.027Z,18.87
2019-02-21T02:19:23.000Z,17.40
2019-02-21T02:21:52.386Z,17.50
2019-02-21T02:24:21.386Z,20.47
2019-02-21T02:26:50.400Z,24.30
2019-02-21T02:29:19.449Z,22.27
2019-02-21T02:31:48.878Z,17.27
2019-02-21T02:34:18.316Z,16.60
2019-02-21T02:36:47.379Z,17.30
2019-02-21T02:39:16.599Z,16.80
2019-02-21T02:41:45.631Z,17.90
2019-02-21T02:44:15.402Z,17.73
2019-02-21T02:46:44.698Z,17.03
2019-02-21T02:49:13.725Z,18.73
2019-02-21T02:51:42.759Z,20.27
2019-02-21T02:54:12.134Z,22.60
2019-02-21T02:56:41.185Z,22.90
2019-02-21T02:59:10.238Z,25.93
2019-02-21T03:01:39.331Z,26.00
2019-02-21T03:04:08.687Z,26.60
2019-02-21T03:06:37.734Z,25.27
2019-02-21T03:09:08.693Z,26.10
2019-02-21T03:11:38.071Z,25.77
2019-02-21T03:14:07.083Z,25.70
2019-02-21T03:16:36.927Z,24.17
2019-02-21T03:19:05.970Z,24.40
2019-02-21T03:21:35.031Z,24.50
2019-02-21T03:24:04.045Z,25.53
2019-02-21T03:26:33.460Z,26.97
2019-02-21T03:29:02.474Z,27.50
2019-02-21T03:31:31.481Z,25.30
2019-02-21T03:34:02.400Z,28.00
2019-02-21T03:36:31.435Z,29.00
2019-02-21T03:39:00.765Z,27.87
2019-02-21T03:41:30.353Z,29.27
2019-02-21T03:44:01.092Z,30.70
2019-02-21T03:46:30.145Z,26.33
2019-02-21T03:48:59.486Z,23.43
2019-02-21T03:51:28.499Z,21.07
2019-02-21T03:53:57.519Z,20.97
2019-02-21T03:56:26.870Z,24.10
2019-02-21T03:58:55.894Z,24.93
2019-02-21T04:01:25.311Z,27.10
2019-02-21T04:03:54.326Z,27.07
2019-02-21T04:06:23.884Z,27.93
2019-02-21T04:08:52.871Z,30.67
2019-02-21T04:11:21.908Z,27.27
2019-02-21T04:13:50.984Z,26.23
2019-02-21T04:16:20.689Z,24.27
2019-02-21T04:18:49.727Z,22.80
2019-02-21T04:21:18.797Z,31.13
2019-02-21T04:23:47.807Z,33.43
2019-02-21T04:26:17.175Z,29.37
2019-02-21T04:28:46.238Z,25.97
2019-02-21T04:31:15.239Z,29.60
2019-02-21T04:33:44.266Z,30.47
2019-02-21T04:36:13.639Z,31.33
2019-02-21T04:38:43.089Z,33.37
2019-02-21T04:41:12.439Z,32.10
2019-02-21T04:43:41.456Z,33.17
2019-02-21T04:46:10.505Z,33.33
2019-02-21T04:48:39.513Z,32.27
2019-02-21T04:51:08.525Z,32.30
2019-02-21T04:53:37.850Z,32.50
2019-02-21T04:56:06.881Z,34.10
2019-02-21T04:58:35.920Z,32.77
2019-02-21T05:01:04.970Z,33.20
2019-02-21T05:03:34.335Z,33.40
2019-02-21T05:06:03.463Z,32.40
2019-02-21T05:08:32.484Z,33.27
2019-02-21T05:11:01.838Z,32.43
2019-02-21T05:13:33.616Z,32.87
2019-02-21T05:16:02.287Z,36.43
2019-02-21T05:18:31.326Z,33.40
2019-02-21T05:21:00.307Z,33.90
2019-02-21T05:23:29.341Z,36.43
2019-02-21T05:25:58.737Z,36.60
2019-02-21T05:28:32.042Z,36.43
2019-02-21T05:31:05.601Z,36.13
2019-02-21T05:33:43.623Z,42.60
2019-02-21T05:36:28.233Z,44.90
2019-02-21T05:39:14.032Z,43.23
2019-02-21T05:42:20.664Z,42.80
2019-02-21T05:45:10.994Z,37.53
2019-02-21T05:48:17.964Z,35.70
2019-02-21T05:51:12.122Z,34.87
2019-02-21T05:53:51.617Z,35.50
2019-02-21T05:56:36.147Z,36.30
2019-02-21T05:59:36.859Z,35.50
2019-02-21T06:02:25.037Z,38.13
2019-02-21T06:05:09.751Z,35.07
2019-02-21T06:07:56.362Z,36.40
2019-02-21T06:10:49.475Z,39.73
2019-02-21T06:13:49.418Z,38.57
2019-02-21T06:16:38.108Z,36.73
2019-02-21T06:19:29.260Z,35.70
2019-02-21T06:22:26.446Z,37.23
2019-02-21T06:25:17.733Z,37.57
2019-02-21T06:28:11.699Z,36.47
2019-02-21T06:30:44.789Z,36.93
2019-02-21T06:33:14.232Z,41.47
2019-02-21T06:35:43.337Z,44.63
2019-02-21T06:38:12.763Z,41.83
2019-02-21T06:40:41.846Z,43.30
2019-02-21T06:43:11.207Z,45.20
2019-02-21T06:45:40.261Z,46.67
2019-02-21T06:48:09.257Z,45.17
2019-02-21T06:50:38.585Z,43.87
2019-02-21T06:53:07.611Z,37.60
2019-02-21T06:55:36.642Z,40.80
2019-02-21T06:58:06.248Z,45.00
2019-02-21T07:00:35.263Z,45.63
2019-02-21T07:03:15.105Z,41.07
2019-02-21T07:05:36.900Z,42.20
2019-02-21T07:08:08.672Z,43.73
2019-02-21T07:10:37.257Z,39.57
2019-02-21T07:13:06.567Z,40.90
2019-02-21T07:15:35.974Z,44.97
2019-02-21T07:18:05.041Z,43.93
2019-02-21T07:20:34.069Z,45.93
2019-02-21T07:23:03.084Z,43.03
2019-02-21T07:25:44.531Z,43.10
2019-02-21T07:28:15.922Z,41.03
2019-02-21T07:30:44.489Z,43.40
2019-02-21T07:33:13.562Z,40.67
2019-02-21T07:35:42.905Z,44.33
2019-02-21T07:38:12.296Z,44.90
2019-02-21T07:40:41.315Z,45.33
2019-02-21T07:43:12.751Z,43.53
2019-02-21T07:45:41.093Z,43.17
2019-02-21T07:48:10.401Z,41.97
2019-02-21T07:50:39.429Z,41.73
2019-02-21T07:53:08.879Z,43.97
2019-02-21T07:55:38.237Z,46.50
2019-02-21T07:58:07.272Z,44.47
2019-02-21T08:00:36.285Z,47.23
2019-02-21T08:03:05.711Z,43.87
2019-02-21T08:05:34.753Z,45.80
2019-02-21T08:08:03.763Z,42.70
2019-02-21T08:10:34.106Z,43.87
2019-02-21T08:13:03.248Z,42.23
2019-02-21T08:15:32.266Z,44.10
2019-02-21T08:18:01.317Z,39.63
2019-02-21T08:20:34.051Z,42.90
2019-02-21T08:23:03.053Z,43.20
2019-02-21T08:25:32.574Z,41.03
2019-02-21T08:28:01.928Z,40.77
2019-02-21T08:30:33.040Z,40.57
2019-02-21T08:33:15.484Z,41.27
2019-02-21T08:35:44.486Z,43.17
2019-02-21T08:38:13.513Z,43.13
2019-02-21T08:40:42.818Z,45.37
2019-02-21T08:43:12.357Z,43.87
2019-02-21T08:45:41.706Z,40.20
2019-02-21T08:48:13.385Z,41.83
2019-02-21T08:50:41.827Z,41.77
2019-02-21T08:53:12.933Z,43.60
2019-02-21T08:55:41.591Z,44.67
2019-02-21T08:58:10.989Z,42.83
2019-02-21T09:00:40.040Z,40.03
2019-02-21T09:03:09.064Z,40.40
2019-02-21T09:05:38.086Z,40.87
2019-02-21T09:08:07.464Z,40.23
2019-02-21T09:10:36.769Z,40.37
2019-02-21T09:13:05.839Z,37.80
2019-02-21T09:15:34.871Z,36.33
2019-02-21T09:18:03.905Z,35.70
2019-02-21T09:20:33.563Z,35.97
2019-02-21T09:23:02.573Z,35.40
2019-02-21T09:25:31.583Z,37.67
2019-02-21T09:28:00.962Z,37.73
2019-02-21T09:30:30.355Z,38.70
2019-02-21T09:32:59.754Z,39.40
2019-02-21T09:35:28.825Z,38.90
2019-02-21T09:37:58.769Z,36.83
2019-02-21T09:40:28.649Z,36.97
2019-02-21T09:42:57.894Z,34.53
2019-02-21T09:45:27.274Z,34.83
2019-02-21T09:47:56.677Z,33.87
2019-02-21T09:50:25.724Z,32.37
2019-02-21T09:52:54.744Z,33.73
2019-02-21T09:55:23.785Z,33.03
2019-02-21T09:57:52.814Z,31.97
2019-02-21T10:00:22.213Z,33.30
2019-02-21T10:02:55.767Z,34.40
2019-02-21T10:05:22.318Z,32.10
2019-02-21T10:07:51.757Z,33.30
2019-02-21T10:10:21.109Z,33.93
2019-02-21T10:12:50.117Z,35.20
2019-02-21T10:15:19.159Z,35.40
2019-02-21T10:17:50.753Z,34.57
2019-02-21T10:20:19.816Z,34.80
2019-02-21T10:22:49.146Z,34.20
2019-02-21T10:25:22.923Z,33.00
2019-02-21T10:27:51.559Z,33.20
2019-02-21T10:30:21.314Z,33.30
2019-02-21T10:32:51.013Z,31.87
2019-02-21T10:35:20.024Z,32.07
2019-02-21T10:37:49.459Z,30.90
2019-02-21T10:40:18.482Z,29.13
2019-02-21T10:42:47.947Z,29.80
2019-02-21T10:45:18.233Z,29.90
2019-02-21T10:47:47.305Z,30.97
2019-02-21T10:50:17.875Z,31.53
2019-02-21T10:52:47.214Z,28.60
2019-02-21T10:55:17.656Z,29.77
2019-02-21T10:57:46.717Z,28.05
2019-02-21T11:00:21.322Z,28.27
2019-02-21T11:02:50.385Z,27.07
2019-02-21T11:05:19.499Z,28.25
2019-02-21T11:07:48.519Z,27.17
2019-02-21T11:10:19.647Z,26.37
2019-02-21T11:12:49.038Z,25.55
2019-02-21T11:15:18.475Z,24.82
2019-02-21T11:17:47.551Z,24.40
2019-02-21T11:20:17.168Z,25.70
2019-02-21T11:22:46.200Z,21.90
2019-02-21T11:25:15.599Z,14.30
2019-02-21T11:27:44.769Z,13.22
2019-02-21T11:30:15.964Z,12.68
2019-02-21T11:32:45.003Z,12.55
2019-02-21T11:35:14.665Z,12.55
2019-02-21T11:37:46.831Z,13.20
2019-02-21T11:40:15.349Z,12.20
2019-02-21T11:42:44.964Z,12.68
2019-02-21T11:45:15.685Z,13.45
2019-02-21T11:47:45.074Z,13.72
2019-02-21T11:50:15.664Z,13.35
2019-02-21T11:52:44.710Z,13.20
2019-02-21T11:55:16.794Z,14.83
2019-02-21T11:57:45.877Z,14.47
2019-02-21T12:00:20.329Z,14.83
2019-02-21T12:02:49.367Z,15.05
2019-02-21T12:05:30.231Z,15.68
2019-02-21T12:07:49.560Z,15.08
2019-02-21T12:10:18.681Z,15.05
2019-02-21T12:12:47.691Z,15.55
2019-02-21T12:15:17.193Z,15.90
2019-02-21T12:17:46.569Z,15.65
2019-02-21T12:20:15.722Z,14.95
2019-02-21T12:22:45.090Z,14.55
2019-02-21T12:25:15.265Z,12.82
2019-02-21T12:27:44.334Z,12.63
2019-02-21T12:30:15.576Z,12.47
2019-02-21T12:32:44.602Z,11.97
2019-02-21T12:35:14.236Z,12.15
2019-02-21T12:37:43.553Z,11.22
2019-02-21T12:40:14.922Z,13.08
2019-02-21T12:42:44.680Z,12.53
2019-02-21T12:45:15.487Z,12.85
2019-02-21T12:47:51.002Z,15.23
2019-02-21T12:50:15.837Z,14.55
2019-02-21T12:52:45.269Z,15.88
2019-02-21T12:55:26.516Z,16.45
2019-02-21T12:57:45.661Z,15.65
2019-02-21T13:00:18.979Z,12.25
2019-02-21T13:02:47.944Z,12.30
2019-02-21T13:05:17.063Z,11.55
2019-02-21T13:07:47.058Z,11.28
2019-02-21T13:10:17.605Z,12.82
2019-02-21T13:12:46.986Z,12.55
2019-02-21T13:15:16.793Z,12.23
2019-02-21T13:17:45.831Z,12.05
2019-02-21T13:20:15.455Z,12.78
2019-02-21T13:22:44.456Z,11.03
2019-02-21T13:25:14.017Z,10.72
2019-02-21T13:27:43.051Z,10.50
2019-02-21T13:30:14.113Z,11.63
2019-02-21T13:32:43.127Z,11.22
2019-02-21T13:35:12.296Z,11.33
2019-02-21T13:37:41.378Z,10.70
2019-02-21T13:40:12.096Z,10.60
2019-02-21T13:42:41.184Z,11.08
2019-02-21T13:45:11.006Z,10.55
2019-02-21T13:47:40.408Z,10.10
2019-02-21T13:50:12.370Z,10.28
2019-02-21T13:52:41.717Z,10.38
2019-02-21T13:55:11.148Z,10.00
2019-02-21T13:57:40.571Z,9.38
2019-02-21T14:00:12.600Z,8.73
2019-02-21T14:02:41.880Z,8.90
2019-02-21T14:05:10.939Z,9.95
2019-02-21T14:07:39.960Z,9.43
2019-02-21T14:10:10.177Z,8.93
2019-02-21T14:12:39.206Z,8.70
2019-02-21T14:15:10.489Z,9.28
2019-02-21T14:17:39.551Z,7.67
2019-02-21T14:20:09.349Z,7.85
2019-02-21T14:22:38.774Z,8.15
2019-02-21T14:25:08.554Z,8.03
2019-02-21T14:27:37.895Z,8.53
2019-02-21T14:30:08.328Z,8.45
2019-02-21T14:32:37.358Z,8.58
2019-02-21T14:35:07.243Z,9.00
2019-02-21T14:37:36.570Z,8.03
2019-02-21T14:40:06.393Z,8.03
2019-02-21T14:42:35.402Z,7.95
2019-02-21T14:45:05.166Z,8.23
2019-02-21T14:47:34.197Z,8.45
2019-02-21T14:50:04.691Z,8.33
2019-02-21T14:52:34.220Z,8.45
2019-02-21T14:55:03.227Z,7.53
2019-02-21T14:57:40.462Z,8.35
2019-02-21T15:00:03.077Z,8.25
2019-02-21T15:02:32.382Z,7.42
2019-02-21T15:05:02.171Z,8.18
2019-02-21T15:07:31.461Z,7.55
2019-02-21T15:10:00.556Z,6.78
2019-02-21T15:12:29.959Z,7.72
2019-02-21T15:14:59.279Z,7.75
2019-02-21T15:17:28.313Z,8.80
2019-02-21T15:19:57.372Z,8.05
2019-02-21T15:22:26.418Z,7.50
2019-02-21T15:24:55.422Z,8.03
2019-02-21T15:27:24.457Z,7.70
2019-02-21T15:29:53.539Z,7.90
2019-02-21T15:32:22.565Z,7.45
2019-02-21T15:34:51.611Z,7.78
2019-02-21T15:37:20.653Z,8.17
2019-02-21T15:39:49.672Z,7.30
2019-02-21T15:42:18.679Z,7.50
2019-02-21T15:44:48.079Z,8.13
2019-02-21T15:47:17.086Z,8.48
2019-02-21T15:49:46.154Z,8.08
2019-02-21T15:52:22.165Z,8.23
2019-02-21T15:54:48.414Z,8.70
2019-02-21T15:57:17.458Z,10.00
2019-02-21T15:59:46.493Z,8.87
2019-02-21T16:02:15.512Z,8.40
2019-02-21T16:04:44.566Z,8.37
2019-02-21T16:07:13.625Z,8.07
2019-02-21T16:09:42.646Z,8.43
2019-02-21T16:12:11.959Z,8.73
2019-02-21T16:14:41.169Z,8.17
2019-02-21T16:17:10.536Z,8.17
2019-02-21T16:19:39.575Z,9.07
2019-02-21T16:22:08.550Z,8.70
2019-02-21T16:24:37.976Z,8.13
2019-02-21T16:27:07.198Z,9.40
2019-02-21T16:29:36.202Z,8.83
2019-02-21T16:32:05.240Z,8.63
2019-02-21T16:34:34.274Z,8.87
2019-02-21T16:37:03.634Z,9.07
2019-02-21T16:39:33.028Z,8.73
2019-02-21T16:42:02.119Z,8.83
2019-02-21T16:44:31.160Z,8.67
2019-02-21T16:47:00.498Z,9.53
2019-02-21T16:49:29.544Z,9.10
2019-02-21T16:51:58.640Z,9.77
2019-02-21T16:54:27.684Z,8.73
2019-02-21T16:56:57.103Z,9.13
2019-02-21T16:59:26.231Z,9.13
2019-02-21T17:01:55.286Z,9.90
2019-02-21T17:04:24.430Z,9.53
2019-02-21T17:06:53.524Z,9.67
2019-02-21T17:09:22.567Z,11.27
2019-02-21T17:11:52.397Z,9.93
2019-02-21T17:14:21.789Z,10.43
2019-02-21T17:16:50.797Z,9.33
2019-02-21T17:19:20.230Z,8.90
2019-02-21T17:21:49.238Z,9.77
2019-02-21T17:24:18.292Z,9.97
2019-02-21T17:26:47.416Z,9.90
2019-02-21T17:29:16.750Z,10.20
2019-02-21T17:31:45.845Z,10.43
2019-02-21T17:34:14.884Z,10.03
2019-02-21T17:36:44.380Z,10.77
2019-02-21T17:39:14.103Z,11.07
2019-02-21T17:41:43.749Z,10.93
2019-02-21T17:44:12.878Z,12.93
2019-02-21T17:46:42.952Z,11.60
2019-02-21T17:49:12.521Z,11.80
2019-02-21T17:51:42.337Z,12.60
2019-02-21T17:54:11.399Z,12.37
2019-02-21T17:56:40.481Z,12.23
2019-02-21T17:59:09.591Z,12.00
2019-02-21T18:01:39.633Z,11.87
2019-02-21T18:04:09.358Z,11.63
2019-02-21T18:06:39.016Z,11.97
2019-02-21T18:09:08.437Z,12.70
2019-02-21T18:11:38.034Z,13.57
2019-02-21T18:14:07.083Z,12.83
2019-02-21T18:16:36.643Z,12.20
2019-02-21T18:19:06.435Z,11.33
2019-02-21T18:21:35.979Z,12.47
2019-02-21T18:24:05.008Z,11.43
2019-02-21T18:26:34.115Z,12.43
2019-02-21T18:29:03.197Z,12.60
2019-02-21T18:31:32.250Z,12.70
2019-02-21T18:34:01.527Z,12.80
2019-02-21T18:36:31.121Z,12.03
2019-02-21T18:39:00.363Z,11.33
2019-02-21T18:41:29.517Z,12.57
2019-02-21T18:43:59.008Z,13.40
2019-02-21T18:46:28.690Z,13.30
2019-02-21T18:48:58.251Z,13.07
2019-02-21T18:51:27.627Z,12.63
2019-02-21T18:53:56.644Z,12.43
2019-02-21T18:56:25.856Z,13.00
2019-02-21T18:58:55.104Z,12.97
2019-02-21T19:01:24.787Z,11.33
2019-02-21T19:03:53.795Z,11.40
2019-02-21T19:06:23.327Z,10.60
2019-02-21T19:08:52.514Z,13.83
2019-02-21T19:11:22.152Z,14.27
2019-02-21T19:13:51.668Z,14.40
2019-02-21T19:16:21.064Z,12.50
2019-02-21T19:18:50.779Z,12.60
2019-02-21T19:21:20.815Z,12.67
2019-02-21T19:23:49.904Z,12.67
2019-02-21T19:26:18.915Z,12.80
2019-02-21T19:28:47.978Z,12.40
2019-02-21T19:31:19.354Z,13.20
2019-02-21T19:33:48.399Z,11.87
2019-02-21T19:36:17.877Z,13.03
2019-02-21T19:38:47.326Z,13.43
2019-02-21T19:41:17.477Z,12.10
2019-02-21T19:43:47.448Z,12.50
2019-02-21T19:46:16.543Z,11.73
2019-02-21T19:48:45.964Z,12.10
2019-02-21T19:51:15.135Z,11.27
2019-02-21T19:53:44.297Z,12.30
2019-02-21T19:56:13.743Z,13.10
2019-02-21T19:58:42.773Z,12.87
2019-02-21T20:01:11.878Z,12.70
2019-02-21T20:03:40.942Z,12.87
2019-02-21T20:06:10.017Z,12.23
2019-02-21T20:08:39.094Z,13.50
2019-02-21T20:11:08.295Z,14.80
2019-02-21T20:13:37.373Z,13.40
2019-02-21T20:16:06.475Z,12.87
2019-02-21T20:18:35.892Z,13.83
2019-02-21T20:21:05.309Z,13.63
2019-02-21T20:23:34.843Z,12.50
2019-02-21T20:26:03.899Z,12.57
2019-02-21T20:28:33.334Z,11.77
2019-02-21T20:31:02.586Z,12.30
2019-02-21T20:33:31.947Z,11.83
2019-02-21T20:36:01.327Z,12.53
2019-02-21T20:38:32.286Z,12.77
2019-02-21T20:41:01.598Z,12.23
2019-02-21T20:43:30.676Z,12.40
2019-02-21T20:46:00.098Z,13.03
2019-02-21T20:48:30.566Z,12.80
2019-02-21T20:51:01.698Z,12.73
2019-02-21T20:53:30.943Z,14.00
2019-02-21T20:56:00.030Z,13.43
2019-02-21T20:58:29.075Z,13.80
2019-02-21T21:00:58.797Z,14.00
2019-02-21T21:03:28.005Z,14.63
2019-02-21T21:05:57.707Z,13.73
2019-02-21T21:08:27.254Z,15.97
2019-02-21T21:10:56.347Z,15.67
2019-02-21T21:13:25.351Z,15.47
2019-02-21T21:15:54.500Z,15.90
2019-02-21T21:18:23.755Z,17.00
2019-02-21T21:20:53.400Z,17.80
2019-02-21T21:23:22.477Z,17.77
2019-02-21T21:25:51.652Z,17.20
2019-02-21T21:28:20.765Z,17.70
2019-02-21T21:30:50.208Z,19.47
2019-02-21T21:33:19.346Z,19.80
2019-02-21T21:35:48.401Z,17.77
2019-02-21T21:38:24.037Z,17.40
2019-02-21T21:40:48.245Z,18.10
2019-02-21T21:43:17.319Z,18.53
2019-02-21T21:45:46.827Z,18.67
2019-02-21T21:48:15.881Z,18.80
2019-02-21T21:50:51.370Z,18.50
2019-02-21T21:53:20.501Z,19.60
2019-02-21T21:55:52.345Z,19.63
2019-02-21T21:58:27.331Z,19.10
2019-02-21T22:00:56.411Z,20.00
2019-02-21T22:03:26.149Z,21.70
2019-02-21T22:05:55.201Z,21.57
2019-02-21T22:08:24.281Z,23.07
2019-02-21T22:10:53.399Z,20.23
2019-02-21T22:13:22.746Z,22.23
2019-02-21T22:15:52.146Z,22.40
2019-02-21T22:18:21.273Z,21.93
2019-02-21T22:20:50.310Z,20.60
2019-02-21T22:23:19.375Z,21.43
2019-02-21T22:25:48.413Z,21.07
2019-02-21T22:28:17.478Z,20.27
2019-02-21T22:30:46.499Z,21.43
2019-02-21T22:33:15.889Z,18.47
2019-02-21T22:35:45.269Z,19.23
2019-02-21T22:38:14.464Z,20.73
2019-02-21T22:40:43.543Z,21.20
2019-02-21T22:43:12.567Z,20.57
2019-02-21T22:45:41.609Z,22.07
2019-02-21T22:48:11.291Z,22.07
2019-02-21T22:50:40.382Z,23.47
2019-02-21T22:53:09.454Z,22.27
2019-02-21T22:55:38.499Z,23.57
2019-02-21T22:58:07.578Z,23.77
2019-02-21T23:01:01.660Z,23.93
2019-02-21T23:03:48.361Z,24.00
2019-02-21T23:06:56.379Z,24.20
2019-02-21T23:09:28.279Z,26.13
2019-02-21T23:11:57.522Z,25.30
2019-02-21T23:14:26.516Z,24.87
2019-02-21T23:16:55.596Z,24.77
2019-02-21T23:19:24.973Z,26.50
2019-02-21T23:21:54.030Z,26.67
2019-02-21T23:24:23.382Z,26.67
2019-02-21T23:26:52.804Z,27.07
2019-02-21T23:29:21.839Z,26.27
2019-02-21T23:31:51.225Z,27.63
2019-02-21T23:34:28.110Z,28.10
2019-02-21T23:36:57.227Z,27.73
2019-02-21T23:39:37.530Z,26.93
2019-02-21T23:41:57.391Z,29.80
2019-02-21T23:44:26.773Z,28.03
2019-02-21T23:46:56.157Z,29.13
2019-02-21T23:49:25.189Z,28.53
2019-02-21T23:51:54.616Z,29.07
2019-02-21T23:54:23.954Z,27.90
2019-02-21T23:56:52.967Z,29.30
2019-02-21T23:59:22.311Z,27.87
